High Tide — D5AA7 — position and weather

sailwx.info

Track history (hours):
 
Tides and Currents Weather Stations Pressure Air Temp Water Temp Dewpoint Dewpoint Depression Visibility Wind Speed Wind Dir Waves Ship Positions

High Tide

Last reported at 2017-Feb-23 06:33 UTC. Time now 2017-Feb-23 06:58 UTC.
Position N 31°34' E 121°29'.

Length 183 m; draft 6 m.

Type: Tanker. MMSI: 636015337.

Date/timePositionNaut miles runAvg speedWind from/ knotsBaromVisibWave heightAir tempDewpointWater temp
2017-Feb-23 06:33N 31°34' E 121°29'7 7.4
2017-Feb-23 05:33N 31°30' E 121°36'7 7.3
2017-Feb-23 04:33N 31°27' E 121°28'1311.9
2017-Feb-23 03:28N 31°20' E 121°41'  
2017-Feb-19 08:10N 34°56' E 139°27'913.8
2017-Feb-19 07:32N 35°01' E 139°35'1312.9
2017-Feb-19 06:33N 35°11' E 139°46'1211.6
2017-Feb-19 05:33N 35°22' E 139°42'1212.3
2017-Feb-19 04:33N 35°30' E 139°54'5 0.2
2017-Feb-18 03:07N 35°28' E 139°60'0 0.0
2017-Feb-18 02:29N 35°28' E 139°60'0 0.0
2017-Feb-18 01:26N 35°28' E 139°60'1 0.8
2017-Feb-18 00:32N 35°29' E 139°59'5 4.4
2017-Feb-17 23:30N 35°33' E 139°57'0 0.0
2017-Feb-17 22:30N 35°33' E 139°57'0 0.1
2017-Feb-17 21:29N 35°33' E 139°57'0 0.2
2017-Feb-17 20:32N 35°33' E 139°57'0 0.0
2017-Feb-17 19:32N 35°33' E 139°57'0 0.0
2017-Feb-17 18:33N 35°33' E 139°57'0 0.0
2017-Feb-17 17:33N 35°33' E 139°57'0 0.0
2017-Feb-17 16:32N 35°33' E 139°57'0 0.0
2017-Feb-17 15:33N 35°33' E 139°57'0 0.0
2017-Feb-17 14:30N 35°33' E 139°57'0 0.0
2017-Feb-17 13:32N 35°33' E 139°57'0 0.0
2017-Feb-17 12:33N 35°33' E 139°57'0 0.2
2017-Feb-17 11:30N 35°33' E 139°57'0 0.1
2017-Feb-17 10:33N 35°33' E 139°57'0 0.0
2017-Feb-17 09:32N 35°33' E 139°57'0 0.0
2017-Feb-17 08:33N 35°33' E 139°57'0 0.0
2017-Feb-17 07:33N 35°33' E 139°57'0 0.0
2017-Feb-17 06:34N 35°33' E 139°57'0 0.1
2017-Feb-17 05:33N 35°33' E 139°57'0 0.1
2017-Feb-17 04:30N 35°33' E 139°57'0 0.1
2017-Feb-17 03:33N 35°33' E 139°57'0 0.0
2017-Feb-17 02:34N 35°33' E 139°57'0 0.0
2017-Feb-17 01:33N 35°33' E 139°57'0 0.0
2017-Feb-17 00:33N 35°33' E 139°57'0 0.0
2017-Feb-16 23:33N 35°33' E 139°57'0 0.0
2017-Feb-16 22:32N 35°33' E 139°57'0 0.0
2017-Feb-16 21:33N 35°33' E 139°57'0 0.1
2017-Feb-16 20:30N 35°33' E 139°57'0 0.1
2017-Feb-16 19:33N 35°33' E 139°57'0 0.0
2017-Feb-16 18:33N 35°33' E 139°57'0 0.0
2017-Feb-16 17:33N 35°33' E 139°57'0 0.0
2017-Feb-16 16:33N 35°33' E 139°57'0 0.0
2017-Feb-16 15:33N 35°33' E 139°57'0 0.1
2017-Feb-16 14:33N 35°33' E 139°57'0 0.1
2017-Feb-16 13:33N 35°33' E 139°57'0 0.0
2017-Feb-16 09:27N 35°33' E 139°57'0 0.1
2017-Feb-16 08:33N 35°33' E 139°57'0 0.0
2017-Feb-16 07:33N 35°33' E 139°57'0 0.0
2017-Feb-16 06:33N 35°33' E 139°57'0 0.1
2017-Feb-16 05:33N 35°33' E 139°57'0 0.2
2017-Feb-16 04:33N 35°33' E 139°57'0 0.1
2017-Feb-16 03:33N 35°33' E 139°57'0 0.1
2017-Feb-16 02:33N 35°33' E 139°57'0 0.0
2017-Feb-16 01:33N 35°33' E 139°57'0 0.0
2017-Feb-16 00:30N 35°33' E 139°57'0 0.0
2017-Feb-15 23:33N 35°33' E 139°57'0 0.0
2017-Feb-15 22:33N 35°33' E 139°57'0 0.0
2017-Feb-15 21:27N 35°33' E 139°57'0 0.0
2017-Feb-15 20:33N 35°33' E 139°57'0 0.0
2017-Feb-15 19:33N 35°33' E 139°57'0 0.0
2017-Feb-15 18:30N 35°33' E 139°57'0 0.0
2017-Feb-15 17:33N 35°33' E 139°57'0 0.0
2017-Feb-15 16:30N 35°33' E 139°57'0 0.0
2017-Feb-15 15:33N 35°33' E 139°57'0 0.0
2017-Feb-15 14:33N 35°33' E 139°57'0 0.0
2017-Feb-15 13:33N 35°33' E 139°57'0 0.0
2017-Feb-15 12:33N 35°33' E 139°57'0 0.0
2017-Feb-15 11:33N 35°33' E 139°57'0 0.1
2017-Feb-15 10:30N 35°33' E 139°57'0 0.0
2017-Feb-15 09:30N 35°33' E 139°57'0 0.0
2017-Feb-15 08:06N 35°33' E 139°57'0 0.0
2017-Feb-15 07:33N 35°33' E 139°57'0 0.0
2017-Feb-15 06:30N 35°33' E 139°57'0 0.0
2017-Feb-15 05:24N 35°33' E 139°57'0 0.1
2017-Feb-15 04:33N 35°33' E 139°57'0 0.1
2017-Feb-15 02:24N 35°33' E 139°57'7 8.0
2017-Feb-15 01:33N 35°28' E 139°51'1111.5
2017-Feb-15 00:33N 35°18' E 139°45'10 9.8
2017-Feb-14 23:31N 35°08' E 139°45'  
Track history (hours):
 
Tides and Currents Weather Stations Pressure Air Temp Water Temp Dewpoint Dewpoint Depression Visibility Wind Speed Wind Dir Waves Ship Positions

High Tide

Last reported at 2017-Feb-23 06:33 UTC. Time now 2017-Feb-23 06:58 UTC.
Position N 31°34' E 121°29'.

Length 183 m; draft 6 m.

Type: Tanker. MMSI: 636015337.

Date/timePositionNaut miles runAvg speedWind from/ knotsBaromVisibWave heightAir tempDewpointWater temp
2017-Feb-23 06:33N 31°34' E 121°29'7 7.4
2017-Feb-23 05:33N 31°30' E 121°36'7 7.3
2017-Feb-23 04:33N 31°27' E 121°28'1311.9
2017-Feb-23 03:28N 31°20' E 121°41'  
2017-Feb-19 08:10N 34°56' E 139°27'913.8
2017-Feb-19 07:32N 35°01' E 139°35'1312.9
2017-Feb-19 06:33N 35°11' E 139°46'1211.6
2017-Feb-19 05:33N 35°22' E 139°42'1212.3
2017-Feb-19 04:33N 35°30' E 139°54'5 0.2
2017-Feb-18 03:07N 35°28' E 139°60'0 0.0
2017-Feb-18 02:29N 35°28' E 139°60'0 0.0
2017-Feb-18 01:26N 35°28' E 139°60'1 0.8
2017-Feb-18 00:32N 35°29' E 139°59'5 4.4
2017-Feb-17 23:30N 35°33' E 139°57'0 0.0
2017-Feb-17 22:30N 35°33' E 139°57'0 0.1
2017-Feb-17 21:29N 35°33' E 139°57'0 0.2
2017-Feb-17 20:32N 35°33' E 139°57'0 0.0
2017-Feb-17 19:32N 35°33' E 139°57'0 0.0
2017-Feb-17 18:33N 35°33' E 139°57'0 0.0
2017-Feb-17 17:33N 35°33' E 139°57'0 0.0
2017-Feb-17 16:32N 35°33' E 139°57'0 0.0
2017-Feb-17 15:33N 35°33' E 139°57'0 0.0
2017-Feb-17 14:30N 35°33' E 139°57'0 0.0
2017-Feb-17 13:32N 35°33' E 139°57'0 0.0
2017-Feb-17 12:33N 35°33' E 139°57'0 0.2
2017-Feb-17 11:30N 35°33' E 139°57'0 0.1
2017-Feb-17 10:33N 35°33' E 139°57'0 0.0
2017-Feb-17 09:32N 35°33' E 139°57'0 0.0
2017-Feb-17 08:33N 35°33' E 139°57'0 0.0
2017-Feb-17 07:33N 35°33' E 139°57'0 0.0
2017-Feb-17 06:34N 35°33' E 139°57'0 0.1
2017-Feb-17 05:33N 35°33' E 139°57'0 0.1
2017-Feb-17 04:30N 35°33' E 139°57'0 0.1
2017-Feb-17 03:33N 35°33' E 139°57'0 0.0
2017-Feb-17 02:34N 35°33' E 139°57'0 0.0
2017-Feb-17 01:33N 35°33' E 139°57'0 0.0
2017-Feb-17 00:33N 35°33' E 139°57'0 0.0
2017-Feb-16 23:33N 35°33' E 139°57'0 0.0
2017-Feb-16 22:32N 35°33' E 139°57'0 0.0
2017-Feb-16 21:33N 35°33' E 139°57'0 0.1
2017-Feb-16 20:30N 35°33' E 139°57'0 0.1
2017-Feb-16 19:33N 35°33' E 139°57'0 0.0
2017-Feb-16 18:33N 35°33' E 139°57'0 0.0
2017-Feb-16 17:33N 35°33' E 139°57'0 0.0
2017-Feb-16 16:33N 35°33' E 139°57'0 0.0
2017-Feb-16 15:33N 35°33' E 139°57'0 0.1
2017-Feb-16 14:33N 35°33' E 139°57'0 0.1
2017-Feb-16 13:33N 35°33' E 139°57'0 0.0
2017-Feb-16 09:27N 35°33' E 139°57'0 0.1
2017-Feb-16 08:33N 35°33' E 139°57'0 0.0
2017-Feb-16 07:33N 35°33' E 139°57'0 0.0
2017-Feb-16 06:33N 35°33' E 139°57'0 0.1
2017-Feb-16 05:33N 35°33' E 139°57'0 0.2
2017-Feb-16 04:33N 35°33' E 139°57'0 0.1
2017-Feb-16 03:33N 35°33' E 139°57'0 0.1
2017-Feb-16 02:33N 35°33' E 139°57'0 0.0
2017-Feb-16 01:33N 35°33' E 139°57'0 0.0
2017-Feb-16 00:30N 35°33' E 139°57'0 0.0
2017-Feb-15 23:33N 35°33' E 139°57'0 0.0
2017-Feb-15 22:33N 35°33' E 139°57'0 0.0
2017-Feb-15 21:27N 35°33' E 139°57'0 0.0
2017-Feb-15 20:33N 35°33' E 139°57'0 0.0
2017-Feb-15 19:33N 35°33' E 139°57'0 0.0
2017-Feb-15 18:30N 35°33' E 139°57'0 0.0
2017-Feb-15 17:33N 35°33' E 139°57'0 0.0
2017-Feb-15 16:30N 35°33' E 139°57'0 0.0
2017-Feb-15 15:33N 35°33' E 139°57'0 0.0
2017-Feb-15 14:33N 35°33' E 139°57'0 0.0
2017-Feb-15 13:33N 35°33' E 139°57'0 0.0
2017-Feb-15 12:33N 35°33' E 139°57'0 0.0
2017-Feb-15 11:33N 35°33' E 139°57'0 0.1
2017-Feb-15 10:30N 35°33' E 139°57'0 0.0
2017-Feb-15 09:30N 35°33' E 139°57'0 0.0
2017-Feb-15 08:06N 35°33' E 139°57'0 0.0
2017-Feb-15 07:33N 35°33' E 139°57'0 0.0
2017-Feb-15 06:30N 35°33' E 139°57'0 0.0
2017-Feb-15 05:24N 35°33' E 139°57'0 0.1
2017-Feb-15 04:33N 35°33' E 139°57'0 0.1
2017-Feb-15 02:24N 35°33' E 139°57'7 8.0
2017-Feb-15 01:33N 35°28' E 139°51'1111.5
2017-Feb-15 00:33N 35°18' E 139°45'10 9.8
2017-Feb-14 23:31N 35°08' E 139°45'  

Dump ship's entire track history